Aviation Digital Data Service (ADDS)

Output produced by METARs form (0235 UTC 03 August 2015)
found at http://www.aviationweather.gov/adds/metars/
 
KESN 030247Z AUTO 00000KT 10SM CLR 23/19 A2995 RMK AO2 T02310186